createdAt,value
2023-04-18T00:01:58.419Z,2.60
2023-04-18T00:04:26.834Z,2.90
2023-04-18T00:06:54.892Z,3.20
2023-04-18T00:09:24.700Z,2.77
2023-04-18T00:11:54.244Z,2.70
2023-04-18T00:14:23.297Z,2.47
2023-04-18T00:16:52.391Z,2.90
2023-04-18T00:19:20.410Z,2.60
2023-04-18T00:21:49.593Z,2.73
2023-04-18T00:24:18.241Z,3.10
2023-04-18T00:26:46.203Z,2.23
2023-04-18T00:29:15.542Z,2.70
2023-04-18T00:31:43.509Z,2.83
2023-04-18T00:34:11.644Z,2.80
2023-04-18T00:36:39.745Z,2.70
2023-04-18T00:39:07.996Z,2.70
2023-04-18T00:41:36.019Z,2.77
2023-04-18T00:44:04.046Z,2.87
2023-04-18T00:46:33.562Z,2.90
2023-04-18T00:49:01.617Z,2.90
2023-04-18T00:51:29.723Z,2.60
2023-04-18T00:53:57.807Z,2.50
2023-04-18T00:56:26.044Z,3.00
2023-04-18T00:58:54.101Z,3.40
2023-04-18T01:01:22.339Z,2.90
2023-04-18T01:03:51.902Z,3.03
2023-04-18T01:06:20.466Z,3.00
2023-04-18T01:08:48.516Z,2.87
2023-04-18T01:11:16.475Z,2.80
2023-04-18T01:13:44.447Z,3.20
2023-04-18T01:16:12.527Z,3.83
2023-04-18T01:18:40.576Z,2.87
2023-04-18T01:21:10.046Z,3.27
2023-04-18T01:23:38.088Z,3.30
2023-04-18T01:26:07.636Z,3.20
2023-04-18T01:28:37.727Z,3.23
2023-04-18T01:31:05.731Z,2.93
2023-04-18T01:33:33.675Z,3.53
2023-04-18T01:36:01.644Z,3.30
2023-04-18T01:38:29.647Z,3.33
2023-04-18T01:40:57.725Z,3.07
2023-04-18T01:43:27.110Z,3.80
2023-04-18T01:45:55.010Z,3.70
2023-04-18T01:48:23.034Z,3.17
2023-04-18T01:50:50.936Z,3.13
2023-04-18T01:53:18.968Z,4.20
2023-04-18T01:55:46.913Z,3.40
2023-04-18T01:58:15.901Z,3.40
2023-04-18T02:00:45.438Z,3.73
2023-04-18T02:03:13.470Z,3.77
2023-04-18T02:05:41.574Z,3.47
2023-04-18T02:08:09.842Z,3.50
2023-04-18T02:10:37.736Z,3.73
2023-04-18T02:13:06.866Z,3.70
2023-04-18T02:15:34.940Z,3.60
2023-04-18T02:18:04.310Z,3.50
2023-04-18T02:20:33.692Z,4.20
2023-04-18T02:23:01.855Z,3.33
2023-04-18T02:25:29.751Z,4.10
2023-04-18T02:27:58.111Z,4.07
2023-04-18T02:30:26.647Z,4.27
2023-04-18T02:32:54.703Z,3.80
2023-04-18T02:35:24.510Z,3.90
2023-04-18T02:37:52.659Z,3.83
2023-04-18T02:40:20.842Z,3.53
2023-04-18T02:42:48.877Z,4.13
2023-04-18T02:45:16.797Z,3.77
2023-04-18T02:47:54.413Z,4.53
2023-04-18T02:50:24.714Z,3.70
2023-04-18T02:52:52.812Z,3.80
2023-04-18T02:55:22.015Z,4.00
2023-04-18T02:57:49.961Z,3.93
2023-04-18T03:00:18.131Z,4.03
2023-04-18T03:02:46.105Z,4.23
2023-04-18T03:05:14.092Z,4.17
2023-04-18T03:07:43.437Z,3.97
2023-04-18T03:10:11.699Z,4.30
2023-04-18T03:12:39.596Z,4.17
2023-04-18T03:15:08.192Z,4.70
2023-04-18T03:17:36.709Z,4.60
2023-04-18T03:20:04.854Z,4.67
2023-04-18T03:22:32.767Z,4.03
2023-04-18T03:25:02.082Z,4.30
2023-04-18T03:27:30.082Z,4.30
2023-04-18T03:29:58.037Z,4.23
2023-04-18T03:32:26.132Z,4.53
2023-04-18T03:34:54.080Z,4.27
2023-04-18T03:37:22.004Z,4.50
2023-04-18T03:39:50.251Z,4.50
2023-04-18T03:42:19.652Z,4.93
2023-04-18T03:44:47.548Z,4.90
2023-04-18T03:47:16.978Z,4.37
2023-04-18T03:49:45.159Z,5.57
2023-04-18T03:52:13.356Z,4.33
2023-04-18T03:54:41.299Z,4.67
2023-04-18T03:57:09.275Z,4.47
2023-04-18T03:59:38.669Z,5.33
2023-04-18T04:02:06.689Z,4.60
2023-04-18T04:04:34.773Z,4.80
2023-04-18T04:07:02.810Z,5.10
2023-04-18T04:09:30.825Z,4.70
2023-04-18T04:11:58.711Z,4.80
2023-04-18T04:14:26.642Z,5.33
2023-04-18T04:16:56.178Z,4.90
2023-04-18T04:19:24.106Z,5.03
2023-04-18T04:21:52.071Z,5.10
2023-04-18T04:24:20.679Z,4.77
2023-04-18T04:26:50.872Z,5.00
2023-04-18T04:29:19.239Z,5.10
2023-04-18T04:31:47.301Z,5.20
2023-04-18T04:34:17.048Z,5.30
2023-04-18T04:36:45.069Z,5.63
2023-04-18T04:39:13.048Z,5.13
2023-04-18T04:41:40.970Z,4.97
2023-04-18T04:44:09.737Z,4.60
2023-04-18T04:46:39.656Z,5.07
2023-04-18T04:49:07.553Z,6.27
2023-04-18T04:51:37.054Z,6.50
2023-04-18T04:54:05.170Z,6.93
2023-04-18T04:56:33.236Z,5.43
2023-04-18T04:59:01.174Z,6.23
2023-04-18T05:01:29.152Z,6.97
2023-04-18T05:03:57.326Z,5.40
2023-04-18T05:06:26.003Z,5.90
2023-04-18T05:08:56.969Z,6.10
2023-04-18T05:11:27.733Z,5.43
2023-04-18T05:13:59.234Z,5.80
2023-04-18T05:16:27.812Z,5.07
2023-04-18T05:18:58.536Z,4.97
2023-04-18T05:21:28.856Z,5.37
2023-04-18T05:23:58.246Z,5.83
2023-04-18T05:26:26.333Z,4.83
2023-04-18T05:28:54.311Z,5.17
2023-04-18T05:31:23.185Z,5.03
2023-04-18T05:33:51.285Z,5.47
2023-04-18T05:36:19.616Z,5.03
2023-04-18T05:38:47.612Z,5.17
2023-04-18T05:41:17.237Z,5.20
2023-04-18T05:43:54.243Z,5.10
2023-04-18T05:46:26.062Z,5.40
2023-04-18T05:48:54.230Z,5.07
2023-04-18T05:51:22.179Z,5.33
2023-04-18T05:53:50.081Z,4.67
2023-04-18T05:56:19.425Z,5.67
2023-04-18T05:58:48.022Z,5.27
2023-04-18T06:01:16.344Z,5.20
2023-04-18T06:03:44.519Z,5.53
2023-04-18T06:06:12.921Z,5.30
2023-04-18T06:08:41.320Z,5.03
2023-04-18T06:11:09.757Z,5.17
2023-04-18T06:13:39.362Z,5.33
2023-04-18T06:16:07.591Z,5.50
2023-04-18T06:18:35.893Z,4.97
2023-04-18T06:21:03.820Z,5.40
2023-04-18T06:23:32.018Z,5.60
2023-04-18T06:26:00.044Z,5.70
2023-04-18T06:28:27.933Z,4.80
2023-04-18T06:30:57.313Z,5.43
2023-04-18T06:33:25.257Z,4.87
2023-04-18T06:35:53.773Z,4.90
2023-04-18T06:38:21.849Z,5.10
2023-04-18T06:40:49.821Z,4.90
2023-04-18T06:43:17.708Z,4.50
2023-04-18T06:45:45.773Z,5.37
2023-04-18T06:48:15.178Z,5.47
2023-04-18T06:50:44.038Z,5.00
2023-04-18T06:53:11.939Z,5.20
2023-04-18T06:55:40.898Z,5.10
2023-04-18T06:58:10.263Z,5.30
2023-04-18T07:00:38.281Z,5.37
2023-04-18T07:03:11.473Z,5.00
2023-04-18T07:05:41.005Z,5.10
2023-04-18T07:08:09.062Z,4.67
2023-04-18T07:10:37.029Z,6.10
2023-04-18T07:13:04.955Z,5.20
2023-04-18T07:15:32.970Z,5.03
2023-04-18T07:18:00.958Z,5.40
2023-04-18T07:20:29.060Z,4.93
2023-04-18T07:22:58.513Z,4.87
2023-04-18T07:25:26.457Z,4.60
2023-04-18T07:27:54.446Z,4.67
2023-04-18T07:30:22.399Z,5.67
2023-04-18T07:32:50.744Z,5.00
2023-04-18T07:35:18.718Z,5.03
2023-04-18T07:37:46.794Z,5.00
2023-04-18T07:40:16.851Z,4.00
2023-04-18T07:42:44.757Z,4.90
2023-04-18T07:45:12.856Z,4.80
2023-04-18T07:47:40.824Z,4.60
2023-04-18T07:50:10.409Z,4.83
2023-04-18T07:52:39.383Z,4.83
2023-04-18T07:55:08.178Z,4.60
2023-04-18T07:57:37.575Z,4.50
2023-04-18T08:00:06.625Z,4.77
2023-04-18T08:02:34.647Z,4.90
2023-04-18T08:05:03.032Z,4.77
2023-04-18T08:07:31.156Z,4.53
2023-04-18T08:09:59.042Z,5.00
2023-04-18T08:12:26.939Z,5.03
2023-04-18T08:14:56.294Z,4.73
2023-04-18T08:17:24.626Z,5.10
2023-04-18T08:19:52.609Z,4.93
2023-04-18T08:22:20.494Z,4.90
2023-04-18T08:25:03.285Z,5.13
2023-04-18T08:27:31.930Z,4.40
2023-04-18T08:30:02.092Z,5.20
2023-04-18T08:32:30.051Z,4.40
2023-04-18T08:34:57.998Z,4.63
2023-04-18T08:37:27.954Z,5.00
2023-04-18T08:39:55.894Z,4.47
2023-04-18T08:42:24.721Z,5.03
2023-04-18T08:44:54.176Z,4.23
2023-04-18T08:47:27.769Z,4.77
2023-04-18T08:49:56.349Z,4.60
2023-04-18T08:52:27.255Z,4.97
2023-04-18T08:54:55.272Z,4.73
2023-04-18T08:57:27.097Z,4.70
2023-04-18T08:59:55.599Z,5.33
2023-04-18T09:02:39.134Z,5.47
2023-04-18T09:05:11.910Z,5.10
2023-04-18T09:07:39.947Z,4.70
2023-04-18T09:10:08.539Z,4.27
2023-04-18T09:12:42.624Z,4.20
2023-04-18T09:15:11.845Z,5.27
2023-04-18T09:17:42.526Z,4.70
2023-04-18T09:20:11.504Z,4.37
2023-04-18T09:22:48.828Z,4.50
2023-04-18T09:25:27.726Z,4.97
2023-04-18T09:27:56.309Z,4.67
2023-04-18T09:30:30.910Z,4.60
2023-04-18T09:33:01.700Z,4.50
2023-04-18T09:35:29.813Z,5.20
2023-04-18T09:37:57.817Z,4.70
2023-04-18T09:40:26.001Z,4.13
2023-04-18T09:42:54.725Z,4.30
2023-04-18T09:45:22.909Z,4.30
2023-04-18T09:47:51.209Z,4.57
2023-04-18T09:50:21.213Z,4.70
2023-04-18T09:52:49.424Z,4.60
2023-04-18T09:55:18.270Z,4.53
2023-04-18T09:57:46.954Z,4.63
2023-04-18T10:00:20.341Z,4.30
2023-04-18T10:02:52.389Z,4.40
2023-04-18T10:05:22.915Z,4.30
2023-04-18T10:07:51.982Z,4.60
2023-04-18T10:10:20.050Z,3.97
2023-04-18T10:12:50.893Z,4.60
2023-04-18T10:15:21.369Z,4.10
2023-04-18T10:18:03.420Z,4.60
2023-04-18T10:20:34.852Z,4.40
2023-04-18T10:23:27.613Z,4.57
2023-04-18T10:25:56.137Z,4.13
2023-04-18T10:28:24.716Z,4.80
2023-04-18T10:30:53.783Z,4.37
2023-04-18T10:33:30.985Z,4.13
2023-04-18T10:36:16.300Z,4.43
2023-04-18T10:38:47.575Z,4.07
2023-04-18T10:41:19.692Z,4.20
2023-04-18T10:44:07.580Z,4.60
2023-04-18T10:46:36.604Z,4.20
2023-04-18T10:49:17.375Z,4.60
2023-04-18T10:51:47.015Z,4.43
2023-04-18T10:54:19.163Z,4.20
2023-04-18T10:56:53.384Z,3.67
2023-04-18T10:59:22.872Z,4.17
2023-04-18T11:01:55.056Z,4.63
2023-04-18T11:04:24.878Z,4.40
2023-04-18T11:06:56.094Z,4.60
2023-04-18T11:09:24.587Z,4.00
2023-04-18T11:12:04.539Z,4.67
2023-04-18T11:14:40.661Z,4.17
2023-04-18T11:17:23.780Z,4.63
2023-04-18T11:19:51.848Z,4.63
2023-04-18T11:22:21.384Z,4.60
2023-04-18T11:24:49.850Z,3.90
2023-04-18T11:27:18.923Z,4.23
2023-04-18T11:29:53.238Z,4.00
2023-04-18T11:32:23.322Z,4.40
2023-04-18T11:34:58.105Z,3.77
2023-04-18T11:37:27.594Z,4.63
2023-04-18T11:39:56.077Z,4.13
2023-04-18T11:42:27.436Z,3.93
2023-04-18T11:44:55.530Z,4.50
2023-04-18T11:47:24.343Z,4.20
2023-04-18T11:49:59.352Z,4.57
2023-04-18T11:52:30.025Z,4.70
2023-04-18T11:54:58.217Z,6.40
2023-04-18T11:57:27.114Z,3.73
2023-04-18T11:59:56.354Z,4.50
2023-04-18T12:02:26.452Z,3.93
2023-04-18T12:04:55.349Z,4.40
2023-04-18T12:07:36.157Z,4.10
2023-04-18T12:10:04.825Z,3.50
2023-04-18T12:12:32.859Z,4.53
2023-04-18T12:15:04.755Z,4.10
2023-04-18T12:17:33.286Z,4.10
2023-04-18T12:20:05.508Z,3.70
2023-04-18T12:22:45.292Z,3.97
2023-04-18T12:25:24.375Z,3.60
2023-04-18T12:27:55.471Z,3.47
2023-04-18T12:30:24.046Z,3.90
2023-04-18T12:32:52.860Z,4.27
2023-04-18T12:35:21.606Z,4.33
2023-04-18T12:37:51.581Z,4.00
2023-04-18T12:40:20.151Z,3.73
2023-04-18T12:42:48.729Z,3.70
2023-04-18T12:45:17.282Z,3.73
2023-04-18T12:47:46.034Z,3.53
2023-04-18T12:50:17.070Z,3.97
2023-04-18T12:52:49.244Z,4.17
2023-04-18T12:55:18.559Z,3.50
2023-04-18T12:57:46.549Z,3.70
2023-04-18T13:00:14.931Z,4.13
2023-04-18T13:02:44.172Z,4.03
2023-04-18T13:05:12.943Z,3.90
2023-04-18T13:07:41.014Z,5.00
2023-04-18T13:10:09.917Z,4.30
2023-04-18T13:12:39.856Z,4.33
2023-04-18T13:15:08.419Z,3.80
2023-04-18T13:17:36.962Z,3.50
2023-04-18T13:20:06.554Z,3.63
2023-04-18T13:22:34.953Z,3.60
2023-04-18T13:25:02.927Z,3.77
2023-04-18T13:27:30.918Z,3.90
2023-04-18T13:30:00.332Z,3.10
2023-04-18T13:32:31.505Z,3.73
2023-04-18T13:34:59.470Z,3.50
2023-04-18T13:37:27.607Z,3.20
2023-04-18T13:39:55.541Z,3.20
2023-04-18T13:42:23.438Z,3.47
2023-04-18T13:44:51.389Z,3.30
2023-04-18T13:47:20.805Z,3.47
2023-04-18T13:49:48.765Z,3.40
2023-04-18T13:52:17.638Z,3.50
2023-04-18T13:54:45.653Z,3.60
2023-04-18T13:57:14.101Z,3.50
2023-04-18T13:59:42.192Z,3.23
2023-04-18T14:02:10.781Z,3.03
2023-04-18T14:04:40.580Z,3.60
2023-04-18T14:07:09.332Z,3.67
2023-04-18T14:09:37.382Z,3.93
2023-04-18T14:12:05.621Z,3.20
2023-04-18T14:14:33.566Z,3.27
2023-04-18T14:17:04.786Z,3.43
2023-04-18T14:19:32.794Z,3.10
2023-04-18T14:22:02.215Z,2.80
2023-04-18T14:24:30.128Z,3.40
2023-04-18T14:26:58.619Z,2.57
2023-04-18T14:29:26.604Z,3.87
2023-04-18T14:31:54.534Z,3.43
2023-04-18T14:34:22.446Z,3.23
2023-04-18T14:36:50.326Z,2.93
2023-04-18T14:39:19.627Z,3.13
2023-04-18T14:41:47.640Z,3.20
2023-04-18T14:44:15.642Z,3.00
2023-04-18T14:46:43.723Z,2.70
2023-04-18T14:49:11.742Z,3.60
2023-04-18T14:51:40.059Z,2.90
2023-04-18T14:54:08.042Z,3.13
2023-04-18T14:56:37.373Z,2.93
2023-04-18T14:59:05.386Z,3.27
2023-04-18T15:01:33.365Z,3.30
2023-04-18T15:04:03.699Z,2.93
2023-04-18T15:06:32.755Z,3.60
2023-04-18T15:09:01.124Z,3.20
2023-04-18T15:11:29.095Z,3.20
2023-04-18T15:14:01.520Z,2.63
2023-04-18T15:16:30.309Z,3.00
2023-04-18T15:18:58.370Z,3.20
2023-04-18T15:21:26.356Z,2.90
2023-04-18T15:23:54.341Z,2.87
2023-04-18T15:26:22.284Z,3.43
2023-04-18T15:28:50.303Z,3.33
2023-04-18T15:31:19.892Z,3.50
2023-04-18T15:33:47.998Z,3.67
2023-04-18T15:36:16.284Z,3.60
2023-04-18T15:38:44.447Z,3.17
2023-04-18T15:41:12.534Z,3.00
2023-04-18T15:43:42.044Z,2.93
2023-04-18T15:46:10.432Z,4.00
2023-04-18T15:48:39.831Z,2.80
2023-04-18T15:51:07.879Z,3.30
2023-04-18T15:53:35.805Z,3.47
2023-04-18T15:56:03.799Z,3.50
2023-04-18T15:58:31.877Z,2.90
2023-04-18T16:01:02.181Z,2.90
2023-04-18T16:03:30.549Z,3.27
2023-04-18T16:06:00.126Z,3.00
2023-04-18T16:08:28.044Z,3.10
2023-04-18T16:10:55.971Z,3.17
2023-04-18T16:13:23.951Z,3.10
2023-04-18T16:15:51.994Z,3.10
2023-04-18T16:18:19.972Z,3.13
2023-04-18T16:20:48.362Z,3.00
2023-04-18T16:23:17.683Z,2.60
2023-04-18T16:25:45.668Z,2.60
2023-04-18T16:28:13.611Z,2.97
2023-04-18T16:30:43.951Z,2.80
2023-04-18T16:33:11.891Z,2.93
2023-04-18T16:35:40.345Z,2.63
2023-04-18T16:38:08.336Z,2.83
2023-04-18T16:40:38.165Z,3.17
2023-04-18T16:43:06.045Z,3.30
2023-04-18T16:45:34.282Z,3.07
2023-04-18T16:48:02.321Z,3.30
2023-04-18T16:50:30.381Z,3.10
2023-04-18T16:53:00.546Z,2.83
2023-04-18T16:55:30.897Z,3.50
2023-04-18T16:58:00.538Z,2.93
2023-04-18T17:00:28.651Z,3.33
2023-04-18T17:02:56.630Z,2.77
2023-04-18T17:05:26.038Z,2.70
2023-04-18T17:07:56.116Z,3.80
2023-04-18T17:10:24.193Z,3.10
2023-04-18T17:12:52.148Z,3.20
2023-04-18T17:15:21.921Z,2.63
2023-04-18T17:17:50.465Z,2.90
2023-04-18T17:20:18.594Z,3.23
2023-04-18T17:22:46.532Z,3.20
2023-04-18T17:25:14.624Z,3.17
2023-04-18T17:27:43.026Z,3.30
2023-04-18T17:30:11.435Z,2.63
2023-04-18T17:32:45.919Z,3.60
2023-04-18T17:35:14.812Z,3.30
2023-04-18T17:37:43.064Z,3.20
2023-04-18T17:40:12.091Z,3.57
2023-04-18T17:42:40.127Z,3.77
2023-04-18T17:45:09.176Z,4.07
2023-04-18T17:47:37.306Z,3.00
2023-04-18T17:50:07.064Z,3.30
2023-04-18T17:52:35.002Z,3.30
2023-04-18T17:55:03.300Z,3.23
2023-04-18T17:57:33.763Z,2.87
2023-04-18T18:00:01.793Z,2.97
2023-04-18T18:02:29.871Z,3.53
2023-04-18T18:04:57.864Z,3.20
2023-04-18T18:07:27.226Z,3.10
2023-04-18T18:09:55.636Z,3.53
2023-04-18T18:12:23.561Z,2.63
2023-04-18T18:14:51.500Z,3.00
2023-04-18T18:17:19.464Z,3.07
2023-04-18T18:19:47.447Z,3.10
2023-04-18T18:22:15.882Z,3.83
2023-04-18T18:24:45.268Z,3.03
2023-04-18T18:27:13.199Z,3.00
2023-04-18T18:29:41.164Z,2.97
2023-04-18T18:32:09.079Z,3.00
2023-04-18T18:34:37.010Z,3.13
2023-04-18T18:37:04.932Z,2.77
2023-04-18T18:39:32.852Z,3.17
2023-04-18T18:42:02.507Z,2.90
2023-04-18T18:44:30.689Z,3.50
2023-04-18T18:46:59.931Z,3.77
2023-04-18T18:49:27.873Z,3.00
2023-04-18T18:51:55.823Z,3.23
2023-04-18T18:54:23.901Z,3.50
2023-04-18T18:56:51.946Z,3.77
2023-04-18T18:59:21.287Z,3.83
2023-04-18T19:01:49.259Z,3.33
2023-04-18T19:04:18.578Z,3.40
2023-04-18T19:06:46.659Z,3.13
2023-04-18T19:09:14.877Z,3.60
2023-04-18T19:11:42.966Z,3.63
2023-04-18T19:14:11.004Z,3.00
2023-04-18T19:16:40.608Z,3.73
2023-04-18T19:19:08.750Z,3.50
2023-04-18T19:21:36.708Z,3.30
2023-04-18T19:24:04.729Z,3.37
2023-04-18T19:26:32.676Z,3.40
2023-04-18T19:29:00.574Z,3.83
2023-04-18T19:31:28.520Z,3.80
2023-04-18T19:33:57.888Z,3.63
2023-04-18T19:36:26.516Z,3.40
2023-04-18T19:38:54.394Z,3.83
2023-04-18T19:41:22.518Z,4.20
2023-04-18T19:43:50.506Z,3.77
2023-04-18T19:46:18.491Z,4.03
2023-04-18T19:48:46.499Z,3.90
2023-04-18T19:51:15.864Z,3.70
2023-04-18T19:53:43.879Z,4.00
2023-04-18T19:56:13.780Z,4.13
2023-04-18T19:58:46.287Z,3.47
2023-04-18T20:01:14.607Z,3.47
2023-04-18T20:03:42.858Z,3.63
2023-04-18T20:06:11.236Z,3.97
2023-04-18T20:08:42.047Z,3.10
2023-04-18T20:11:10.519Z,4.07
2023-04-18T20:13:38.474Z,4.07
2023-04-18T20:16:07.491Z,3.60
2023-04-18T20:18:37.741Z,3.87
2023-04-18T20:21:07.310Z,4.00
2023-04-18T20:23:35.508Z,3.97
2023-04-18T20:26:05.586Z,3.30
2023-04-18T20:28:33.505Z,3.63
2023-04-18T20:31:01.612Z,3.27
2023-04-18T20:33:29.589Z,3.57
2023-04-18T20:35:59.069Z,4.17
2023-04-18T20:38:29.916Z,4.00
2023-04-18T20:40:59.070Z,3.77
2023-04-18T20:43:28.658Z,3.57
2023-04-18T20:45:57.909Z,3.90
2023-04-18T20:48:26.014Z,3.60
2023-04-18T20:50:53.952Z,3.10
2023-04-18T20:53:22.562Z,2.67
2023-04-18T20:55:50.521Z,2.57
2023-04-18T20:58:18.416Z,1.90
2023-04-18T21:00:48.486Z,2.27
2023-04-18T21:03:16.961Z,2.10
2023-04-18T21:05:45.683Z,2.00
2023-04-18T21:08:13.654Z,1.90
2023-04-18T21:10:41.545Z,1.90
2023-04-18T21:13:09.477Z,1.60
2023-04-18T21:15:38.289Z,1.90
2023-04-18T21:18:07.738Z,1.40
2023-04-18T21:20:37.022Z,1.80
2023-04-18T21:23:04.977Z,2.57
2023-04-18T21:25:32.885Z,2.40
2023-04-18T21:28:01.331Z,2.63
2023-04-18T21:30:29.351Z,1.93
2023-04-18T21:32:57.315Z,1.50
2023-04-18T21:35:26.754Z,1.50
2023-04-18T21:37:54.672Z,1.63
2023-04-18T21:40:22.756Z,2.00
2023-04-18T21:42:51.343Z,1.80
2023-04-18T21:45:19.500Z,1.97
2023-04-18T21:47:47.491Z,1.70
2023-04-18T21:50:15.471Z,1.60
2023-04-18T21:52:44.784Z,1.57
2023-04-18T21:55:12.738Z,1.50
2023-04-18T21:57:40.633Z,1.73
2023-04-18T22:00:11.325Z,1.40
2023-04-18T22:02:39.402Z,1.40
2023-04-18T22:05:08.936Z,1.87
2023-04-18T22:07:46.701Z,1.90
2023-04-18T22:10:26.669Z,1.83
2023-04-18T22:12:54.821Z,1.90
2023-04-18T22:15:22.806Z,1.67
2023-04-18T22:17:50.771Z,1.80
2023-04-18T22:20:18.807Z,1.63
2023-04-18T22:22:46.790Z,2.60
2023-04-18T22:25:14.750Z,1.90
2023-04-18T22:27:45.202Z,1.90
2023-04-18T22:30:13.901Z,1.73
2023-04-18T22:32:41.916Z,2.50
2023-04-18T22:35:10.473Z,2.23
2023-04-18T22:37:38.425Z,2.70
2023-04-18T22:40:06.910Z,1.97
2023-04-18T22:42:36.127Z,2.07
2023-04-18T22:45:07.536Z,1.90
2023-04-18T22:47:35.525Z,2.50
2023-04-18T22:50:03.556Z,2.50
2023-04-18T22:52:31.505Z,3.73
2023-04-18T22:54:59.461Z,6.83
2023-04-18T22:57:27.460Z,9.73
2023-04-18T22:59:55.462Z,2.90
2023-04-18T23:02:24.917Z,2.30
2023-04-18T23:04:53.434Z,2.07
2023-04-18T23:07:21.442Z,2.27
2023-04-18T23:09:49.346Z,2.40
2023-04-18T23:12:17.327Z,2.10
2023-04-18T23:14:45.308Z,2.50
2023-04-18T23:17:13.383Z,2.10
2023-04-18T23:19:42.726Z,2.57
2023-04-18T23:22:10.695Z,2.30
2023-04-18T23:24:39.126Z,2.63
2023-04-18T23:27:07.126Z,2.77
2023-04-18T23:29:37.545Z,2.83
2023-04-18T23:32:05.785Z,2.33
2023-04-18T23:34:33.714Z,3.10
2023-04-18T23:37:03.023Z,2.50
2023-04-18T23:39:30.961Z,2.60
2023-04-18T23:41:58.926Z,2.40
2023-04-18T23:44:27.108Z,2.80
2023-04-18T23:46:55.061Z,2.30
2023-04-18T23:49:23.050Z,2.93
2023-04-18T23:51:51.076Z,2.80
2023-04-18T23:54:20.440Z,2.87
2023-04-18T23:56:48.348Z,2.67
2023-04-18T23:59:16.239Z,3.50
